createdAt,value
2022-10-28T00:01:17.846Z,77.50
2022-10-28T00:03:49.577Z,77.50
2022-10-28T00:06:19.248Z,77.50
2022-10-28T00:08:46.205Z,77.50
2022-10-28T00:11:18.155Z,77.50
2022-10-28T00:13:45.839Z,77.50
2022-10-28T00:16:19.021Z,77.60
2022-10-28T00:18:46.819Z,77.60
2022-10-28T00:21:16.626Z,77.60
2022-10-28T00:23:43.967Z,77.70
2022-10-28T00:26:19.499Z,77.70
2022-10-28T00:28:49.142Z,77.80
2022-10-28T00:31:18.570Z,77.90
2022-10-28T00:33:46.219Z,78.00
2022-10-28T00:36:18.832Z,78.00
2022-10-28T00:38:48.268Z,78.00
2022-10-28T00:41:18.545Z,78.20
2022-10-28T00:43:54.002Z,78.30
2022-10-28T00:46:20.890Z,78.40
2022-10-28T00:48:50.950Z,78.40
2022-10-28T00:51:19.723Z,78.50
2022-10-28T00:53:48.334Z,78.50
2022-10-28T00:56:16.648Z,78.60
2022-10-28T00:58:45.521Z,78.60
2022-10-28T01:01:12.639Z,78.60
2022-10-28T01:03:39.815Z,78.70
2022-10-28T01:06:07.698Z,78.70
2022-10-28T01:08:34.619Z,78.70
2022-10-28T01:11:23.470Z,78.70
2022-10-28T01:14:17.278Z,78.70
2022-10-28T01:17:03.687Z,78.70
2022-10-28T01:19:30.554Z,78.70
2022-10-28T01:22:07.620Z,78.70
2022-10-28T01:25:04.273Z,78.70
2022-10-28T01:27:52.462Z,78.70
2022-10-28T01:30:23.373Z,78.70
2022-10-28T01:33:10.418Z,78.80
2022-10-28T01:35:52.509Z,79.00
2022-10-28T01:38:33.109Z,79.10
2022-10-28T01:41:13.655Z,79.10
2022-10-28T01:44:02.536Z,79.10
2022-10-28T01:46:37.462Z,79.20
2022-10-28T01:49:26.008Z,79.20
2022-10-28T01:51:57.229Z,79.20
2022-10-28T01:54:27.847Z,79.20
2022-10-28T01:56:57.031Z,79.20
2022-10-28T01:59:28.002Z,79.20
2022-10-28T02:01:56.052Z,79.30
2022-10-28T02:04:22.958Z,79.30
2022-10-28T02:06:55.923Z,79.30
2022-10-28T02:09:25.582Z,79.30
2022-10-28T02:12:30.623Z,79.30
2022-10-28T02:15:09.572Z,79.30
2022-10-28T02:18:13.497Z,79.40
2022-10-28T02:20:51.593Z,79.30
2022-10-28T02:23:33.435Z,79.40
2022-10-28T02:26:20.843Z,79.40
2022-10-28T02:29:01.891Z,79.30
2022-10-28T02:31:54.067Z,79.30
2022-10-28T02:34:27.455Z,79.30
2022-10-28T02:36:58.120Z,79.30
2022-10-28T02:39:31.514Z,79.30
2022-10-28T02:42:03.933Z,79.30
2022-10-28T02:44:40.609Z,79.30
2022-10-28T02:47:13.414Z,79.30
2022-10-28T02:49:44.329Z,79.30
2022-10-28T02:52:12.088Z,79.20
2022-10-28T02:54:51.531Z,79.20
2022-10-28T02:57:35.366Z,79.20
2022-10-28T03:00:07.476Z,79.20
2022-10-28T03:02:34.603Z,79.20
2022-10-28T03:05:01.773Z,79.20
2022-10-28T03:07:28.705Z,79.20
2022-10-28T03:09:55.583Z,79.20
2022-10-28T03:12:22.637Z,79.20
2022-10-28T03:14:49.567Z,79.30
2022-10-28T03:17:16.595Z,79.20
2022-10-28T03:19:43.498Z,79.30
2022-10-28T03:22:10.433Z,79.30
2022-10-28T03:24:37.357Z,79.30
2022-10-28T03:27:04.314Z,79.30
2022-10-28T03:29:31.208Z,79.30
2022-10-28T03:31:58.138Z,79.30
2022-10-28T03:34:25.018Z,79.30
2022-10-28T03:36:51.969Z,79.30
2022-10-28T03:39:19.204Z,79.40
2022-10-28T03:41:46.785Z,79.40
2022-10-28T03:44:13.759Z,79.40
2022-10-28T03:46:40.682Z,79.40
2022-10-28T03:49:07.567Z,79.40
2022-10-28T03:51:34.518Z,79.50
2022-10-28T03:54:01.575Z,79.50
2022-10-28T03:56:28.492Z,79.60
2022-10-28T03:58:55.398Z,79.60
2022-10-28T04:01:22.591Z,79.60
2022-10-28T04:03:49.550Z,79.60
2022-10-28T04:06:17.131Z,79.60
2022-10-28T04:08:44.018Z,79.60
2022-10-28T04:11:10.929Z,79.60
2022-10-28T04:13:37.843Z,79.60
2022-10-28T04:16:05.208Z,79.60
2022-10-28T04:18:32.246Z,79.70
2022-10-28T04:20:59.210Z,79.70
2022-10-28T04:23:26.066Z,79.70
2022-10-28T04:25:56.364Z,79.70
2022-10-28T04:28:24.460Z,79.70
2022-10-28T04:30:51.702Z,79.70
2022-10-28T04:33:18.859Z,79.70
2022-10-28T04:35:45.776Z,79.70
2022-10-28T04:38:14.302Z,79.70
2022-10-28T04:40:41.746Z,79.70
2022-10-28T04:43:10.194Z,79.60
2022-10-28T04:45:38.313Z,79.70
2022-10-28T04:48:05.504Z,79.60
2022-10-28T04:50:32.413Z,79.60
2022-10-28T04:53:00.138Z,79.60
2022-10-28T04:55:27.481Z,79.50
2022-10-28T04:57:56.660Z,79.50
2022-10-28T05:00:24.369Z,79.40
2022-10-28T05:02:51.579Z,79.40
2022-10-28T05:05:18.877Z,79.40
2022-10-28T05:07:46.414Z,79.40
2022-10-28T05:10:15.555Z,79.40
2022-10-28T05:12:43.287Z,79.40
2022-10-28T05:15:11.249Z,79.40
2022-10-28T05:17:46.285Z,79.40
2022-10-28T05:20:15.718Z,79.40
2022-10-28T05:22:47.122Z,79.40
2022-10-28T05:25:14.272Z,79.40
2022-10-28T05:27:41.144Z,79.40
2022-10-28T05:30:08.855Z,79.50
2022-10-28T05:32:35.911Z,79.50
2022-10-28T05:35:03.857Z,79.50
2022-10-28T05:37:30.899Z,79.50
2022-10-28T05:39:57.834Z,79.50
2022-10-28T05:42:24.982Z,79.50
2022-10-28T05:44:52.510Z,79.50
2022-10-28T05:47:19.502Z,79.50
2022-10-28T05:49:46.418Z,79.50
2022-10-28T05:52:13.322Z,79.60
2022-10-28T05:54:40.267Z,79.60
2022-10-28T05:57:07.208Z,79.60
2022-10-28T05:59:34.127Z,79.50
2022-10-28T06:02:01.001Z,79.40
2022-10-28T06:04:28.022Z,79.40
2022-10-28T06:06:56.381Z,79.30
2022-10-28T06:09:23.290Z,79.30
2022-10-28T06:11:48.690Z,79.30
2022-10-28T06:14:15.613Z,79.30
2022-10-28T06:16:42.517Z,79.30
2022-10-28T06:19:09.453Z,79.20
2022-10-28T06:21:36.371Z,79.20
2022-10-28T06:24:05.110Z,79.10
2022-10-28T06:26:33.172Z,79.00
2022-10-28T06:29:00.065Z,78.90
2022-10-28T06:31:26.980Z,78.80
2022-10-28T06:33:56.160Z,78.70
2022-10-28T06:36:23.142Z,78.60
2022-10-28T06:38:51.918Z,78.60
2022-10-28T06:41:18.911Z,78.50
2022-10-28T06:43:45.807Z,78.50
2022-10-28T06:46:12.748Z,78.40
2022-10-28T06:48:41.217Z,78.30
2022-10-28T06:51:08.196Z,78.30
2022-10-28T06:53:35.197Z,78.30
2022-10-28T06:56:02.156Z,78.30
2022-10-28T06:58:29.162Z,78.30
2022-10-28T07:00:56.107Z,78.20
2022-10-28T07:03:23.064Z,78.20
2022-10-28T07:05:51.602Z,78.20
2022-10-28T07:08:18.563Z,78.10
2022-10-28T07:10:52.968Z,78.10
2022-10-28T07:13:19.878Z,78.20
2022-10-28T07:15:52.387Z,78.20
2022-10-28T07:18:19.838Z,78.20
2022-10-28T07:20:46.986Z,78.20
2022-10-28T07:23:14.182Z,78.20
2022-10-28T07:25:41.558Z,78.20
2022-10-28T07:28:08.650Z,78.30
2022-10-28T07:30:36.061Z,78.30
2022-10-28T07:33:05.323Z,78.30
2022-10-28T07:35:32.477Z,78.40
2022-10-28T07:37:59.384Z,78.40
2022-10-28T07:40:26.782Z,78.40
2022-10-28T07:42:54.000Z,78.50
2022-10-28T07:45:21.113Z,78.50
2022-10-28T07:47:48.037Z,78.50
2022-10-28T07:50:15.147Z,78.50
2022-10-28T07:52:42.105Z,78.50
2022-10-28T07:55:11.184Z,78.50
2022-10-28T07:57:38.450Z,78.50
2022-10-28T08:00:06.897Z,78.60
2022-10-28T08:02:40.188Z,78.50
2022-10-28T08:05:07.500Z,78.50
2022-10-28T08:07:37.699Z,78.50
2022-10-28T08:10:06.183Z,78.40
2022-10-28T08:12:33.109Z,78.30
2022-10-28T08:15:00.037Z,78.30
2022-10-28T08:17:26.978Z,78.30
2022-10-28T08:19:53.905Z,78.20
2022-10-28T08:22:20.798Z,78.20
2022-10-28T08:24:47.861Z,78.10
2022-10-28T08:27:14.718Z,78.10
2022-10-28T08:29:41.633Z,78.10
2022-10-28T08:32:09.389Z,78.10
2022-10-28T08:34:39.259Z,78.10
2022-10-28T08:37:09.679Z,78.00
2022-10-28T08:39:36.655Z,78.10
2022-10-28T08:42:22.571Z,78.00
2022-10-28T08:45:04.556Z,77.90
2022-10-28T08:47:50.384Z,77.90
2022-10-28T08:50:20.478Z,77.90
2022-10-28T08:53:05.653Z,77.80
2022-10-28T08:55:37.207Z,77.60
2022-10-28T08:58:25.190Z,77.40
2022-10-28T09:00:55.361Z,77.20
2022-10-28T09:03:24.334Z,77.10
2022-10-28T09:06:02.610Z,76.90
2022-10-28T09:08:33.518Z,76.90
2022-10-28T09:11:03.889Z,77.00
2022-10-28T09:13:55.286Z,77.00
2022-10-28T09:16:49.205Z,77.10
2022-10-28T09:19:31.080Z,77.20
2022-10-28T09:22:19.925Z,77.20
2022-10-28T09:25:23.285Z,77.30
2022-10-28T09:27:53.359Z,77.20
2022-10-28T09:30:35.287Z,77.20
2022-10-28T09:33:20.893Z,77.30
2022-10-28T09:35:48.778Z,77.20
2022-10-28T09:38:28.375Z,77.20
2022-10-28T09:41:18.282Z,77.20
2022-10-28T09:43:51.275Z,77.00
2022-10-28T09:46:18.853Z,77.00
2022-10-28T09:48:49.781Z,77.00
2022-10-28T09:51:34.914Z,77.00
2022-10-28T09:54:02.205Z,77.00
2022-10-28T09:56:30.794Z,77.00
2022-10-28T09:59:01.080Z,76.80
2022-10-28T10:01:42.893Z,76.70
2022-10-28T10:04:24.726Z,76.60
2022-10-28T10:07:03.953Z,76.50
2022-10-28T10:09:32.723Z,76.50
2022-10-28T10:12:10.948Z,76.80
2022-10-28T10:14:45.690Z,76.90
2022-10-28T10:17:16.982Z,76.70
2022-10-28T10:20:03.158Z,76.60
2022-10-28T10:22:40.878Z,76.50
2022-10-28T10:25:30.038Z,76.30
2022-10-28T10:28:15.086Z,76.20
2022-10-28T10:30:49.724Z,75.90
2022-10-28T10:33:23.828Z,75.90
2022-10-28T10:36:09.644Z,75.70
2022-10-28T10:38:37.786Z,75.40
2022-10-28T10:41:04.892Z,75.10
2022-10-28T10:43:33.232Z,74.80
2022-10-28T10:46:12.213Z,74.50
2022-10-28T10:48:39.391Z,74.30
2022-10-28T10:51:23.240Z,73.80
2022-10-28T10:54:00.895Z,73.60
2022-10-28T10:56:33.044Z,73.30
2022-10-28T10:59:02.960Z,72.90
2022-10-28T11:01:38.378Z,72.70
2022-10-28T11:04:07.611Z,72.60
2022-10-28T11:06:40.930Z,72.60
2022-10-28T11:09:35.089Z,72.70
2022-10-28T11:12:14.340Z,72.50
2022-10-28T11:15:03.978Z,72.60
2022-10-28T11:17:34.960Z,72.70
2022-10-28T11:20:26.154Z,72.70
2022-10-28T11:23:22.768Z,72.60
2022-10-28T11:26:01.457Z,72.30
2022-10-28T11:28:55.966Z,72.20
2022-10-28T11:31:29.299Z,72.00
2022-10-28T11:33:59.538Z,71.90
2022-10-28T11:36:35.769Z,71.60
2022-10-28T11:39:15.309Z,71.30
2022-10-28T11:42:12.885Z,70.80
2022-10-28T11:44:50.999Z,70.30
2022-10-28T11:47:33.825Z,70.20
2022-10-28T11:50:24.228Z,70.20
2022-10-28T11:53:07.714Z,70.10
2022-10-28T11:55:57.812Z,70.00
2022-10-28T11:59:00.541Z,69.80
2022-10-28T12:01:54.002Z,69.40
2022-10-28T12:04:34.803Z,68.90
2022-10-28T12:07:01.739Z,68.70
2022-10-28T12:09:56.938Z,68.70
2022-10-28T12:12:48.628Z,68.30
2022-10-28T12:15:59.804Z,68.40
2022-10-28T12:18:35.777Z,68.20
2022-10-28T12:21:25.851Z,68.10
2022-10-28T12:23:56.242Z,68.10
2022-10-28T12:26:37.110Z,68.40
2022-10-28T12:29:10.224Z,68.60
2022-10-28T12:31:50.105Z,68.70
2022-10-28T12:34:23.670Z,68.60
2022-10-28T12:37:09.385Z,68.40
2022-10-28T12:39:44.060Z,68.10
2022-10-28T12:42:25.832Z,67.90
2022-10-28T12:44:55.359Z,67.90
2022-10-28T12:47:52.870Z,67.90
2022-10-28T12:50:42.627Z,67.50
2022-10-28T12:53:24.844Z,67.70
2022-10-28T12:56:01.061Z,67.50
2022-10-28T12:58:34.298Z,67.40
2022-10-28T13:01:29.661Z,67.40
2022-10-28T13:03:56.830Z,67.40
2022-10-28T13:09:17.753Z,67.60
2022-10-28T13:12:08.607Z,67.70
2022-10-28T13:14:47.171Z,67.30
2022-10-28T13:17:22.686Z,67.10
2022-10-28T13:20:01.698Z,67.10
2022-10-28T13:22:34.407Z,66.90
2022-10-28T13:25:13.574Z,66.80
2022-10-28T13:27:40.784Z,66.70
2022-10-28T13:30:17.785Z,66.40
2022-10-28T13:32:45.311Z,66.20
2022-10-28T13:35:20.112Z,66.10
2022-10-28T13:37:48.968Z,66.00
2022-10-28T13:40:30.856Z,65.90
2022-10-28T13:42:59.502Z,65.90
2022-10-28T13:45:44.580Z,65.80
2022-10-28T13:48:29.810Z,65.70
2022-10-28T13:51:29.432Z,65.70
2022-10-28T13:53:57.355Z,65.90
2022-10-28T13:56:27.018Z,66.00
2022-10-28T13:59:17.130Z,66.10
2022-10-28T14:01:56.514Z,66.10
2022-10-28T14:04:37.977Z,66.10
2022-10-28T14:07:20.249Z,66.20
2022-10-28T14:09:49.878Z,66.60
2022-10-28T14:12:29.949Z,66.70
2022-10-28T14:15:17.654Z,66.90
2022-10-28T14:17:54.417Z,67.10
2022-10-28T14:20:36.297Z,67.30
2022-10-28T14:23:21.526Z,67.30
2022-10-28T14:25:51.601Z,67.40
2022-10-28T14:28:27.735Z,67.40
2022-10-28T14:31:12.451Z,67.40
2022-10-28T14:33:50.652Z,67.50
2022-10-28T14:36:17.542Z,67.60
2022-10-28T14:39:05.963Z,67.60
2022-10-28T14:41:51.585Z,67.80
2022-10-28T14:44:55.926Z,68.10
2022-10-28T14:47:40.629Z,68.20
2022-10-28T14:50:34.266Z,68.40
2022-10-28T14:53:02.386Z,68.50
2022-10-28T14:55:33.119Z,68.70
2022-10-28T14:58:24.882Z,68.80
2022-10-28T15:01:21.203Z,68.90
2022-10-28T15:03:52.574Z,68.90
2022-10-28T15:06:32.897Z,69.10
2022-10-28T15:09:11.379Z,69.20
2022-10-28T15:23:27.038Z,69.40
2022-10-28T15:26:13.469Z,69.20
2022-10-28T15:28:41.285Z,69.30
2022-10-28T15:31:09.040Z,69.40
2022-10-28T15:33:41.009Z,69.50
2022-10-28T15:36:18.252Z,69.60
2022-10-28T15:39:04.547Z,69.80
2022-10-28T15:41:40.767Z,70.00
2022-10-28T15:44:38.152Z,70.10
2022-10-28T15:47:31.887Z,70.20
2022-10-28T15:50:02.237Z,70.50
2022-10-28T15:52:36.018Z,70.70
2022-10-28T15:55:26.740Z,70.90
2022-10-28T15:58:22.605Z,71.20
2022-10-28T16:00:53.876Z,71.50
2022-10-28T16:03:25.498Z,71.70
2022-10-28T16:05:54.320Z,71.80
2022-10-28T16:08:31.359Z,72.00
2022-10-28T16:11:01.301Z,72.10
2022-10-28T16:13:37.010Z,72.20
2022-10-28T16:16:07.099Z,72.40
2022-10-28T16:18:43.514Z,72.50
2022-10-28T16:21:20.656Z,72.50
2022-10-28T16:23:56.444Z,72.60
2022-10-28T16:26:23.690Z,72.80
2022-10-28T16:28:50.566Z,72.90
2022-10-28T16:31:19.507Z,72.90
2022-10-28T16:33:46.636Z,73.00
2022-10-28T16:36:13.596Z,73.00
2022-10-28T16:38:40.735Z,73.10
2022-10-28T16:41:15.222Z,73.10
2022-10-28T16:43:42.620Z,73.20
2022-10-28T16:46:12.069Z,73.20
2022-10-28T16:48:39.291Z,73.40
2022-10-28T16:51:19.933Z,73.30
2022-10-28T16:53:48.448Z,73.40
2022-10-28T16:56:16.465Z,73.40
2022-10-28T16:58:43.918Z,73.50
2022-10-28T17:01:11.705Z,73.60
2022-10-28T17:03:38.736Z,73.80
2022-10-28T17:06:06.014Z,73.80
2022-10-28T17:08:57.027Z,73.90
2022-10-28T17:11:19.967Z,74.00
2022-10-28T17:13:47.970Z,74.00
2022-10-28T17:16:14.916Z,74.00
2022-10-28T17:18:43.632Z,74.10
2022-10-28T17:21:10.595Z,74.20
2022-10-28T17:23:39.960Z,74.30
2022-10-28T17:26:06.956Z,74.40
2022-10-28T17:28:33.833Z,74.50
2022-10-28T17:31:05.900Z,74.60
2022-10-28T17:33:33.113Z,74.70
2022-10-28T17:36:05.300Z,74.80
2022-10-28T17:38:32.630Z,75.00
2022-10-28T17:40:59.529Z,75.20
2022-10-28T17:43:26.725Z,75.20
2022-10-28T17:46:06.295Z,75.40
2022-10-28T17:48:33.972Z,75.40
2022-10-28T17:51:00.926Z,75.40
2022-10-28T17:53:27.989Z,75.50
2022-10-28T17:55:58.403Z,75.50
2022-10-28T17:58:25.573Z,75.50
2022-10-28T18:00:59.947Z,75.60
2022-10-28T18:03:27.981Z,75.70
2022-10-28T18:05:55.147Z,75.80
2022-10-28T18:08:23.215Z,75.90
2022-10-28T18:10:57.714Z,75.90
2022-10-28T18:13:31.358Z,75.90
2022-10-28T18:16:05.243Z,75.90
2022-10-28T18:18:37.468Z,76.00
2022-10-28T18:21:11.699Z,76.00
2022-10-28T18:23:39.084Z,76.10
2022-10-28T18:26:10.116Z,76.10
2022-10-28T18:28:38.225Z,76.20
2022-10-28T18:31:11.476Z,76.20
2022-10-28T18:33:39.465Z,76.20
2022-10-28T18:36:11.110Z,76.20
2022-10-28T18:38:38.279Z,76.20
2022-10-28T18:41:08.646Z,76.30
2022-10-28T18:43:35.522Z,76.30
2022-10-28T18:46:02.414Z,76.30
2022-10-28T18:48:31.570Z,76.30
2022-10-28T18:51:07.544Z,76.40
2022-10-28T18:53:39.314Z,76.40
2022-10-28T18:56:14.690Z,76.30
2022-10-28T18:58:42.090Z,76.20
2022-10-28T19:01:11.686Z,76.10
2022-10-28T19:03:39.340Z,76.10
2022-10-28T19:06:15.108Z,76.00
2022-10-28T19:08:42.935Z,75.90
2022-10-28T19:11:13.594Z,75.90
2022-10-28T19:13:42.195Z,75.80
2022-10-28T19:16:09.726Z,75.80
2022-10-28T19:18:38.337Z,75.70
2022-10-28T19:21:13.019Z,75.70
2022-10-28T19:23:40.860Z,75.70
2022-10-28T19:26:09.153Z,75.70
2022-10-28T19:28:40.051Z,75.80
2022-10-28T19:31:09.951Z,75.80
2022-10-28T19:33:40.457Z,75.80
2022-10-28T19:36:23.530Z,75.80
2022-10-28T19:38:53.575Z,75.80
2022-10-28T19:41:26.118Z,75.90
2022-10-28T19:44:01.297Z,75.90
2022-10-28T19:46:33.977Z,76.10
2022-10-28T19:49:03.995Z,76.00
2022-10-28T19:51:36.484Z,76.00
2022-10-28T19:54:06.291Z,76.10
2022-10-28T19:56:34.781Z,76.10
2022-10-28T19:59:03.488Z,76.20
2022-10-28T20:01:33.373Z,76.20
2022-10-28T20:04:00.650Z,76.30
2022-10-28T20:06:31.810Z,76.40
2022-10-28T20:08:58.731Z,76.40
2022-10-28T20:11:28.090Z,76.50
2022-10-28T20:14:04.244Z,76.40
2022-10-28T20:16:32.753Z,76.50
2022-10-28T20:18:59.813Z,76.50
2022-10-28T20:21:31.578Z,76.70
2022-10-28T20:23:58.567Z,76.70
2022-10-28T20:26:28.258Z,76.70
2022-10-28T20:28:55.493Z,76.80
2022-10-28T20:31:24.828Z,76.90
2022-10-28T20:33:53.947Z,76.90
2022-10-28T20:36:30.532Z,77.00
2022-10-28T20:39:04.534Z,77.10
2022-10-28T20:41:33.635Z,77.20
2022-10-28T20:44:02.609Z,77.20
2022-10-28T20:46:29.753Z,77.20
2022-10-28T20:48:56.874Z,77.30
2022-10-28T20:51:25.669Z,77.30
2022-10-28T20:53:52.699Z,77.40
2022-10-28T20:56:23.905Z,77.40
2022-10-28T20:58:51.589Z,77.50
2022-10-28T21:01:20.983Z,77.50
2022-10-28T21:03:48.992Z,77.50
2022-10-28T21:06:17.122Z,77.50
2022-10-28T21:08:44.284Z,77.50
2022-10-28T21:11:13.283Z,77.40
2022-10-28T21:13:41.083Z,77.40
2022-10-28T21:16:10.219Z,77.50
2022-10-28T21:18:38.649Z,77.50
2022-10-28T21:21:06.523Z,77.50
2022-10-28T21:23:33.534Z,77.60
2022-10-28T21:26:03.082Z,77.70
2022-10-28T21:28:31.831Z,77.70
2022-10-28T21:31:04.793Z,77.70
2022-10-28T21:33:33.003Z,77.70
2022-10-28T21:36:02.426Z,77.70
2022-10-28T21:38:30.385Z,77.70
2022-10-28T21:41:10.912Z,77.60
2022-10-28T21:43:39.980Z,77.60
2022-10-28T21:46:07.705Z,77.60
2022-10-28T21:48:35.768Z,77.50
2022-10-28T21:51:08.502Z,77.50
2022-10-28T21:53:39.134Z,77.50
2022-10-28T21:56:17.613Z,77.70
2022-10-28T21:58:47.008Z,77.70
2022-10-28T22:01:24.238Z,77.70
2022-10-28T22:03:54.627Z,77.70
2022-10-28T22:06:22.425Z,77.60
2022-10-28T22:08:49.362Z,77.70
2022-10-28T22:11:21.401Z,77.70
2022-10-28T22:13:54.794Z,77.80
2022-10-28T22:16:21.704Z,77.90
2022-10-28T22:18:48.637Z,77.90
2022-10-28T22:21:23.211Z,77.90
2022-10-28T22:23:50.513Z,78.00
2022-10-28T22:26:22.331Z,77.90
2022-10-28T22:28:50.186Z,77.90
2022-10-28T22:31:19.529Z,77.80
2022-10-28T22:36:22.607Z,77.80
2022-10-28T22:38:49.941Z,77.80
2022-10-28T22:41:20.990Z,77.90
2022-10-28T22:43:59.171Z,77.90
2022-10-28T22:46:28.699Z,78.00
2022-10-28T22:48:55.884Z,78.10
2022-10-28T22:51:23.461Z,78.00
2022-10-28T22:53:50.744Z,78.10
2022-10-28T22:56:23.599Z,78.10
2022-10-28T22:58:58.893Z,78.20
2022-10-28T23:01:28.410Z,78.20
2022-10-28T23:03:55.880Z,78.30
2022-10-28T23:06:24.919Z,78.40
2022-10-28T23:08:52.516Z,78.40
2022-10-28T23:11:21.187Z,78.40
2022-10-28T23:13:52.854Z,78.50
2022-10-28T23:16:20.202Z,78.60
2022-10-28T23:18:48.126Z,78.60
2022-10-28T23:21:20.552Z,78.70
2022-10-28T23:23:51.297Z,78.70
2022-10-28T23:26:21.855Z,78.80
2022-10-28T23:28:53.689Z,78.80
2022-10-28T23:31:21.710Z,78.80
2022-10-28T23:33:49.074Z,78.90
2022-10-28T23:36:16.738Z,78.90
2022-10-28T23:38:43.852Z,78.90
2022-10-28T23:41:15.720Z,78.90
2022-10-28T23:43:43.076Z,78.90
2022-10-28T23:46:10.851Z,78.90
2022-10-28T23:48:38.329Z,78.90
2022-10-28T23:51:05.775Z,78.90
2022-10-28T23:53:32.782Z,78.90
2022-10-28T23:55:59.686Z,78.90
2022-10-28T23:58:26.774Z,78.90
